الصفحة الرئيسية
METAR-TAF:

METAR-TAF

مطار :

أردبيل, إيران

دائرة عرض: 38-19-35N, خط طول: 048-25-28E, ارتفاع: 1315 متر

مراقبة الطقس الحالي

تاريخ ووقت الإصدار 48 دقيقة قبل الساعة 03:00UTC
ريح 4 عقدة من الجنوب/الجنوب الشرقي
درجة الحرارة -2°درجة مئوية
الرطوبة 100%
ضغط 1018 hPa
الرؤية 10 كم أو أكثر
غيوم قليلة على ارتفاع 9000 قدم
ضباب بالجوار,

METAR: OITL 130300Z 15004KT 9999 VCFG FEW090 M02/M02 Q1018

زمن: 08:18 (03:48 UTC)

توقعات

تاريخ ووقت الإصدار 1ساعة و 28 دقيقة قبل الساعة 02:20UTC
التوقعات صالحة من13 الساعة 03 UTC إلى 13 الساعة 12 UTC
ريح 8 عقدة من الشمال/الشمال الغربي
الرؤية: 4000 متر
غيوم قليلة على ارتفاع 1000 قدم
غشاء
مؤقت
من 13 الساعة 03 UTC إلى 13 الساعة 05 UTC
الرؤية: 0800 متر
غيوم مفككة على ارتفاع 800 قدم
ضباب
أصبح
من 13 الساعة 05 UTC إلى 13 الساعة 07 UTC
الرؤية: 7000 متر
مؤقت
من 13 الساعة 09 UTC إلى 13 الساعة 12 UTC
ريح 16 عقدة من الشرق/الشمال الشرقي
غيوم قليلة على ارتفاع 3500 قدم, مزن ركامية عمودية.
غيوم متفرقة على ارتفاع 9000 قدم

TAF: OITL 130220Z 1303/1312 33008KT 4000 BR FEW010 TEMPO 1303/1305 0800 FG BKN008 BECMG 1305/1307 7000 TEMPO 1309/1312 07016KT FEW035TCU SCT090

أرصاد الطقس والتوقعات من أكثر من 4000 مطار (تقارير الطقس للمطار METAR والتنبؤ بالطقس بالمطارTAF).

المحطات المتاحة هي النقط الصفراء والحمراء على الخريطة.

حرك المؤشر فوق النقطة لمعرفة اسم المحطة.

ثم انقر لمعرفة أرصاد وتوقعات الطقس.

لتغيير الخارطة: اضغط على الأزرار الخضراء مع رمز الصليب الأسود للتكبير. على الزر الأخضر مع شرطة للتصغير، أو على الأسهم الخضراء للخرائط المجاورة.


METAR-TAF: